Hauptseite
METAR-TAF:

METAR-TAF

Flughäfen :

Flughafen Brunei International

Brunei, Brunei

Breite: 04-56N, Länge: 114-56E, Höhe: 22 m

Beobachtung

Neuester Wetterbericht von vor 35 Minuten, um 06:00 UTC
Wind 8 kt aus Südwest
Temperatur 33°C
Luftfeuchtigkeit 59%
Luftdruck 1007 hPa
Sichtweite 10 km oder mehr
Aufgelockert bewölkt in der Höhe von 1500 ft
Durchbrochene Bewölkung in der Höhe von 28000 ft

METAR: WBSB 240600Z 23008KT 9999 SCT015 BKN280 33/24 Q1007 NOSIG

Zeit: 14:35 (06:35 UTC)

Prognose

Neuester Wetterbericht von vor 1 Stunde und 35 Minuten, um 05:00 UTC
Gültige Prognose vom 24 um 06 UTC bis 25 um 12 UTC
Wind 8 kt aus West
Sichtweite 10 km oder mehr
Leicht bewölkt in der Höhe von 1500 ft
Übergehend zu
vom 24 um 14 UTC bis 24 um 16 UTC
Wind 3 kt aus Süd/Südwest
Leicht bewölkt in der Höhe von 1400 ft

TAF: WBSB 240500Z 2406/2512 26008KT 9999 FEW015 BECMG 2414/2416 20003KT FEW014

Wetterbeobachtungen und Prognosen von mehr als 4000 Flughäfen (METAR und TAF Bericht).

Die verfügbaren Stationen werden durch gelbe und rote Markierungen auf der Karte dargestellt.

Führen Sie die Maus auf sie, um den Namen der Station zu sehen.

Darauf klicken, um die Beobachtung von Wetterbeobachtungen und Prognosen zu sehen.

Um die Karte zu ändern : klicken Sie auf den grünen Tasten mit einem schwarzen Kreuz Zum Vergrößern, auf den grünen Button mit einem Gedankenstrich zu verkleinern, oder auf die grünen Pfeile für benachbarte Karten.


METAR-TAF: